P.t. Monto — VMBF — position and weather

sailwx.info

Track history (hours):
 
Tides and Currents Weather Stations Pressure Air Temp Water Temp Dewpoint Dewpoint Depression Visibility Wind Speed Wind Dir Waves Ship Positions

P.t. Monto

Last reported at 2014-Aug-20 04:32 UTC. Time now 2014-Sep-02 23:58 UTC.
Position S 27°27' E 153°05'.
Warning: this ship's position is 13 days out of date.

Length 32 m; draft 3.4 m.

Type: Tug. MMSI: 503612000.

Date/timePositionNaut miles runAvg speedWind from/ knotsBaromVisibWave heightAir tempDewpointWater temp
2014-Aug-20 04:32S 27°27' E 153°05'1 0.8
2014-Aug-20 03:30S 27°27' E 153°06'5 5.2
2014-Aug-20 02:33S 27°23' E 153°10'6 6.2
2014-Aug-20 01:34S 27°17' E 153°13'7 6.9
2014-Aug-20 00:34S 27°12' E 153°17'6 6.3
2014-Aug-19 23:34S 27°06' E 153°18'7 6.8
2014-Aug-19 22:34S 27°00' E 153°14'7 7.5
2014-Aug-19 21:33S 26°53' E 153°10'7 6.9
2014-Aug-19 20:33S 26°46' E 153°10'4 4.2
2014-Aug-19 19:33S 26°42' E 153°12'2 2.2
2014-Aug-19 18:33S 26°41' E 153°14'5 5.2
2014-Aug-19 17:34S 26°36' E 153°15'  
2014-Aug-14 19:21S 26°48' E 153°11'7 9.1
2014-Aug-14 18:33S 26°55' E 153°11'1111.1
2014-Aug-14 17:33S 27°05' E 153°18'1010.0
2014-Aug-14 16:33S 27°14' E 153°15'10 9.9
2014-Aug-14 15:33S 27°23' E 153°10'6 5.6
2014-Aug-14 14:33S 27°27' E 153°05'0 0.0
2014-Aug-14 13:33S 27°27' E 153°05'0 0.0
2014-Aug-14 12:25S 27°27' E 153°05'0 0.0
2014-Aug-14 10:30S 27°27' E 153°05'0 0.0
2014-Aug-14 08:29S 27°27' E 153°05'0 0.0
2014-Aug-14 07:32S 27°27' E 153°05'0 0.0
2014-Aug-14 06:25S 27°27' E 153°05'0 0.0
2014-Aug-14 05:25S 27°27' E 153°05'0 0.0
2014-Aug-14 04:22S 27°27' E 153°05'0 0.0
2014-Aug-13 22:32S 27°27' E 153°05'  
Track history (hours):
 
Tides and Currents Weather Stations Pressure Air Temp Water Temp Dewpoint Dewpoint Depression Visibility Wind Speed Wind Dir Waves Ship Positions

P.t. Monto

Last reported at 2014-Aug-20 04:32 UTC. Time now 2014-Sep-02 23:58 UTC.
Position S 27°27' E 153°05'.
Warning: this ship's position is 13 days out of date.

Length 32 m; draft 3.4 m.

Type: Tug. MMSI: 503612000.

Date/timePositionNaut miles runAvg speedWind from/ knotsBaromVisibWave heightAir tempDewpointWater temp
2014-Aug-20 04:32S 27°27' E 153°05'1 0.8
2014-Aug-20 03:30S 27°27' E 153°06'5 5.2
2014-Aug-20 02:33S 27°23' E 153°10'6 6.2
2014-Aug-20 01:34S 27°17' E 153°13'7 6.9
2014-Aug-20 00:34S 27°12' E 153°17'6 6.3
2014-Aug-19 23:34S 27°06' E 153°18'7 6.8
2014-Aug-19 22:34S 27°00' E 153°14'7 7.5
2014-Aug-19 21:33S 26°53' E 153°10'7 6.9
2014-Aug-19 20:33S 26°46' E 153°10'4 4.2
2014-Aug-19 19:33S 26°42' E 153°12'2 2.2
2014-Aug-19 18:33S 26°41' E 153°14'5 5.2
2014-Aug-19 17:34S 26°36' E 153°15'  
2014-Aug-14 19:21S 26°48' E 153°11'7 9.1
2014-Aug-14 18:33S 26°55' E 153°11'1111.1
2014-Aug-14 17:33S 27°05' E 153°18'1010.0
2014-Aug-14 16:33S 27°14' E 153°15'10 9.9
2014-Aug-14 15:33S 27°23' E 153°10'6 5.6
2014-Aug-14 14:33S 27°27' E 153°05'0 0.0
2014-Aug-14 13:33S 27°27' E 153°05'0 0.0
2014-Aug-14 12:25S 27°27' E 153°05'0 0.0
2014-Aug-14 10:30S 27°27' E 153°05'0 0.0
2014-Aug-14 08:29S 27°27' E 153°05'0 0.0
2014-Aug-14 07:32S 27°27' E 153°05'0 0.0
2014-Aug-14 06:25S 27°27' E 153°05'0 0.0
2014-Aug-14 05:25S 27°27' E 153°05'0 0.0
2014-Aug-14 04:22S 27°27' E 153°05'0 0.0
2014-Aug-13 22:32S 27°27' E 153°05'  

Dump ship's entire track history